Irondale, Washington
Current Conditions -  °F | °C
As of 1:56 AM on Thursday 23 Oct 2014 (Local Time) from KNUW Reporting Station
Broken Clouds Broken Clouds  
Wind Chill: 55°   Ceiling: 3100
Heat Index: 55°   Visibility: 10mi
Dew Point: 50°   Wind: 7mph
Humidity: 83%   Direction: 100°E
Pressure: 29.7"   Gusts: NA
Location:  48.0288°N, 122.77°W
Report Text: KNUW 230856Z 10006KT 10SM FEW015 BKN031 BKN060 13/10 A2970 RMK AO2 SLP060 T01280100 53025
Loading
Personal Weather Stations






























Interactive Weather Map
Tropical Storm Tracking
New forecast layout! Learn more

10-Day Weather Forecast

Advertisements
Track Severe Weather on mobile